Time;durP1;ratioP1;P1;durP2;ratioP2;P2;SDS_P1;SDS_P2;PMS_P1;PMS_P2;Temp;Humidity;BMP_temperature;BMP_pressure;BME280_temperature;BME280_humidity;BME280_pressure;Samples;Min_cycle;Max_cycle;Signal;HPM_P1;HPM_P2
2023/05/24 00:00:28;;;;;;;;;;;8.80;99.90;;;;;;5081656;28;20428;-82
2023/05/24 00:02:53;;;;;;;;;;;8.80;99.90;;;;;;5084093;28;20523;-82
2023/05/24 00:05:19;;;;;;;;;;;8.70;99.90;;;;;;5083594;28;19954;-83
2023/05/24 00:07:44;;;;;;;;;;;8.80;99.90;;;;;;5082719;28;19954;-83
2023/05/24 00:10:10;;;;;;;;;;;8.90;99.90;;;;;;5082065;28;20402;-84
2023/05/24 00:12:36;;;;;;;;;;;8.80;99.90;;;;;;5067801;28;19985;-83
2023/05/24 00:15:01;;;;;;;;;;;8.80;99.90;;;;;;5081539;28;19932;-82
2023/05/24 00:17:29;;;;;;;;;;;8.90;99.90;;;;;;5084131;28;19924;-83
2023/05/24 00:19:54;;;;;;;;;;;8.80;99.90;;;;;;5081947;28;20015;-83
2023/05/24 00:22:20;;;;;;;;;;;8.90;99.90;;;;;;5082298;28;20022;-84
2023/05/24 00:24:46;;;;;;;;;;;8.90;99.90;;;;;;5082410;28;20009;-82
2023/05/24 00:27:13;;;;;;;;;;;8.90;99.90;;;;;;5080747;28;20552;-82
2023/05/24 00:29:38;;;;;;;;;;;8.80;99.90;;;;;;5114345;27;19928;-82
2023/05/24 00:32:04;;;;;;;;;;;8.80;99.90;;;;;;5081378;28;20349;-83
2023/05/24 00:34:29;;;;;;;;;;;8.80;99.90;;;;;;5082882;28;20595;-83
2023/05/24 00:36:56;;;;;;;;;;;8.90;99.90;;;;;;5082660;28;20032;-82
2023/05/24 00:39:22;;;;;;;;;;;8.80;99.90;;;;;;5081839;28;19938;-82
2023/05/24 00:41:47;;;;;;;;;;;8.90;99.90;;;;;;5080711;28;19924;-81
2023/05/24 00:44:13;;;;;;;;;;;8.80;99.90;;;;;;5083217;28;20317;-83
2023/05/24 00:46:39;;;;;;;;;;;8.90;99.90;;;;;;5080902;28;19928;-82
2023/05/24 00:49:04;;;;;;;;;;;8.90;99.90;;;;;;5083515;28;19928;-83
2023/05/24 00:51:32;;;;;;;;;;;8.90;99.90;;;;;;5063795;28;19924;-82
2023/05/24 00:53:58;;;;;;;;;;;8.90;99.90;;;;;;5081519;28;20525;-82
2023/05/24 00:56:25;;;;;;;;;;;9.00;99.90;;;;;;5080748;28;19945;-82
2023/05/24 00:58:53;;;;;;;;;;;9.00;99.90;;;;;;5080913;28;20631;-81
2023/05/24 01:01:19;;;;;;;;;;;9.00;99.90;;;;;;5081631;28;19928;-82
2023/05/24 01:03:45;;;;;;;;;;;9.00;99.90;;;;;;5063583;28;19924;-82
2023/05/24 01:06:11;;;;;;;;;;;8.90;99.90;;;;;;5066206;28;19978;-81
2023/05/24 01:08:37;;;;;;;;;;;8.90;99.90;;;;;;5081706;28;20022;-82
2023/05/24 01:11:26;;;;;;;;;;;8.90;99.90;;;;;;5082042;28;20003;-82
2023/05/24 01:13:58;;;;;;;;;;;8.90;99.90;;;;;;5072072;28;20036;-82
2023/05/24 01:16:26;;;;;;;;;;;8.90;99.90;;;;;;5080206;28;19925;-82
2023/05/24 01:18:53;;;;;;;;;;;8.90;99.90;;;;;;5081067;28;20393;-82
2023/05/24 01:21:40;;;;;;;;;;;8.90;99.90;;;;;;5079363;28;19929;-82
2023/05/24 01:24:12;;;;;;;;;;;8.80;99.90;;;;;;5081062;28;19975;-82
2023/05/24 01:26:37;;;;;;;;;;;8.90;99.90;;;;;;5063757;28;19936;-82
2023/05/24 01:29:03;;;;;;;;;;;8.80;99.90;;;;;;5082879;28;19934;-83
2023/05/24 01:31:29;;;;;;;;;;;8.80;99.90;;;;;;5079712;28;20339;-82
2023/05/24 01:33:55;;;;;;;;;;;8.70;99.90;;;;;;5081206;28;19932;-83
2023/05/24 01:36:20;;;;;;;;;;;8.70;99.90;;;;;;5079866;28;19967;-82
2023/05/24 01:38:46;;;;;;;;;;;8.70;99.90;;;;;;5081228;28;19928;-82
2023/05/24 01:41:15;;;;;;;;;;;8.70;99.90;;;;;;5081415;28;19928;-82
2023/05/24 01:43:47;;;;;;;;;;;8.70;99.90;;;;;;5082239;28;19928;-82
2023/05/24 01:46:28;;;;;;;;;;;8.70;99.90;;;;;;5080342;28;20556;-82
2023/05/24 01:48:57;;;;;;;;;;;8.60;99.90;;;;;;5115867;27;19932;-82
2023/05/24 01:51:23;;;;;;;;;;;8.50;99.90;;;;;;5079570;28;19935;-82
2023/05/24 01:53:49;;;;;;;;;;;8.50;99.90;;;;;;5082911;28;20019;-82
2023/05/24 01:56:15;;;;;;;;;;;8.50;99.90;;;;;;5080390;28;20184;-82
2023/05/24 01:58:42;;;;;;;;;;;8.50;99.90;;;;;;5079965;28;20016;-82
2023/05/24 02:01:08;;;;;;;;;;;8.50;99.90;;;;;;5082814;28;19930;-82
2023/05/24 02:03:37;;;;;;;;;;;8.50;99.90;;;;;;5073301;28;19933;-82
2023/05/24 02:06:02;;;;;;;;;;;8.40;99.90;;;;;;5079518;28;19924;-82
2023/05/24 02:08:28;;;;;;;;;;;8.40;99.90;;;;;;5079791;28;20015;-82
2023/05/24 02:10:53;;;;;;;;;;;8.50;99.90;;;;;;5080029;28;19935;-82
2023/05/24 02:13:19;;;;;;;;;;;8.40;99.90;;;;;;5079930;28;20018;-83
2023/05/24 02:15:46;;;;;;;;;;;8.50;99.90;;;;;;5081204;28;19975;-83
2023/05/24 02:18:12;;;;;;;;;;;8.50;99.90;;;;;;5064126;28;19932;-82
2023/05/24 02:20:38;;;;;;;;;;;8.50;99.90;;;;;;5078533;28;19943;-83
2023/05/24 02:23:04;;;;;;;;;;;8.40;99.90;;;;;;5080261;28;20304;-82
2023/05/24 02:25:30;;;;;;;;;;;8.50;99.90;;;;;;5081230;28;20541;-81
2023/05/24 02:27:56;;;;;;;;;;;8.50;99.90;;;;;;5078474;28;20028;-82
2023/05/24 02:30:22;;;;;;;;;;;8.40;99.90;;;;;;5079441;28;19925;-83
2023/05/24 02:32:47;;;;;;;;;;;8.40;99.90;;;;;;5075060;28;19942;-83
2023/05/24 02:35:13;;;;;;;;;;;8.40;99.90;;;;;;5081418;28;19928;-83
2023/05/24 02:37:39;;;;;;;;;;;8.30;99.90;;;;;;5080327;28;20293;-82
2023/05/24 02:40:05;;;;;;;;;;;8.30;99.90;;;;;;5078061;28;19931;-82
2023/05/24 02:42:30;;;;;;;;;;;8.40;99.90;;;;;;5080962;28;19924;-82
2023/05/24 02:44:56;;;;;;;;;;;8.40;99.90;;;;;;5082524;28;19924;-82
2023/05/24 02:47:22;;;;;;;;;;;8.40;99.90;;;;;;5080356;28;19928;-82
2023/05/24 02:49:47;;;;;;;;;;;8.50;99.90;;;;;;5115568;27;20117;-82
2023/05/24 02:52:13;;;;;;;;;;;8.40;99.90;;;;;;5082685;28;20019;-82
2023/05/24 02:54:39;;;;;;;;;;;8.30;99.90;;;;;;5081650;28;19928;-82
2023/05/24 02:57:05;;;;;;;;;;;8.20;99.90;;;;;;5083374;28;20381;-83
2023/05/24 02:59:32;;;;;;;;;;;8.30;99.90;;;;;;5081701;28;19931;-82
2023/05/24 03:01:58;;;;;;;;;;;8.20;99.90;;;;;;5083884;28;19950;-83
2023/05/24 03:04:24;;;;;;;;;;;8.20;99.90;;;;;;5083805;28;20393;-82
2023/05/24 03:06:50;;;;;;;;;;;8.20;99.90;;;;;;5085857;28;19932;-83
2023/05/24 03:09:16;;;;;;;;;;;8.20;99.90;;;;;;5117270;27;19932;-83
2023/05/24 03:11:41;;;;;;;;;;;8.20;99.90;;;;;;5084408;28;19931;-82
2023/05/24 03:14:09;;;;;;;;;;;8.30;99.90;;;;;;5084021;28;19970;-82
2023/05/24 03:16:35;;;;;;;;;;;8.40;99.90;;;;;;5083485;28;19928;-83
2023/05/24 03:19:01;;;;;;;;;;;8.40;99.90;;;;;;5084092;28;19935;-82
2023/05/24 03:21:26;;;;;;;;;;;8.50;99.90;;;;;;5083713;28;19924;-83
2023/05/24 03:23:52;;;;;;;;;;;8.50;99.90;;;;;;5083325;28;19928;-82
2023/05/24 03:26:18;;;;;;;;;;;8.50;99.90;;;;;;5117707;27;19990;-82
2023/05/24 03:28:44;;;;;;;;;;;8.60;99.90;;;;;;5083583;28;19935;-83
2023/05/24 03:31:09;;;;;;;;;;;8.60;99.90;;;;;;5080801;28;20396;-83
2023/05/24 03:33:35;;;;;;;;;;;8.60;99.90;;;;;;5085594;28;19932;-81
2023/05/24 03:36:03;;;;;;;;;;;8.60;99.90;;;;;;5082879;28;19924;-83
2023/05/24 03:38:28;;;;;;;;;;;8.60;99.90;;;;;;5086245;28;19935;-83
2023/05/24 03:40:54;;;;;;;;;;;8.60;99.90;;;;;;5083517;28;19924;-83
2023/05/24 03:43:20;;;;;;;;;;;8.60;99.90;;;;;;5115954;27;20327;-82
2023/05/24 03:45:46;;;;;;;;;;;8.60;99.90;;;;;;5085761;28;19995;-82
2023/05/24 03:48:11;;;;;;;;;;;8.60;99.90;;;;;;5085093;28;19981;-82
2023/05/24 03:50:37;;;;;;;;;;;8.70;99.90;;;;;;5085591;28;19928;-82
2023/05/24 03:53:03;;;;;;;;;;;8.80;99.90;;;;;;5084738;28;19931;-83
2023/05/24 03:55:29;;;;;;;;;;;8.80;99.90;;;;;;5085065;28;21794;-82
2023/05/24 03:57:54;;;;;;;;;;;8.80;99.90;;;;;;5084687;28;20006;-82
2023/05/24 04:00:20;;;;;;;;;;;8.80;99.90;;;;;;5085437;28;20014;-82
2023/05/24 04:02:46;;;;;;;;;;;8.90;99.90;;;;;;5084623;28;19928;-82
2023/05/24 04:05:12;;;;;;;;;;;8.90;99.90;;;;;;5085300;28;19943;-83
2023/05/24 04:07:38;;;;;;;;;;;8.90;99.90;;;;;;5084078;28;19932;-83
2023/05/24 04:10:04;;;;;;;;;;;9.00;99.90;;;;;;5084990;28;19928;-82
2023/05/24 04:12:31;;;;;;;;;;;9.00;99.90;;;;;;5083109;28;20026;-84
2023/05/24 04:14:56;;;;;;;;;;;9.00;99.90;;;;;;5086356;28;20062;-83
2023/05/24 04:17:25;;;;;;;;;;;9.00;99.90;;;;;;5065353;28;20352;-83
2023/05/24 04:19:51;;;;;;;;;;;9.10;99.90;;;;;;5084915;28;20616;-83
2023/05/24 04:22:17;;;;;;;;;;;9.10;99.90;;;;;;5082711;28;19928;-83
2023/05/24 04:24:46;;;;;;;;;;;9.10;99.90;;;;;;5084878;28;20382;-83
2023/05/24 04:27:11;;;;;;;;;;;9.00;99.90;;;;;;5082005;28;19924;-82
2023/05/24 04:29:40;;;;;;;;;;;9.00;99.90;;;;;;5083173;28;20355;-83
2023/05/24 04:32:06;;;;;;;;;;;9.10;99.90;;;;;;5086412;28;20077;-84
2023/05/24 04:34:35;;;;;;;;;;;9.10;99.90;;;;;;5083868;28;20027;-82
2023/05/24 04:37:04;;;;;;;;;;;9.20;99.90;;;;;;5084379;28;19932;-82
2023/05/24 04:39:29;;;;;;;;;;;9.20;99.90;;;;;;5085236;28;19977;-83
2023/05/24 04:41:56;;;;;;;;;;;9.30;99.90;;;;;;5067678;28;20742;-83
2023/05/24 04:44:23;;;;;;;;;;;9.40;99.90;;;;;;5083162;28;19978;-83
2023/05/24 04:46:48;;;;;;;;;;;9.40;99.90;;;;;;5082644;28;19932;-83
2023/05/24 04:49:14;;;;;;;;;;;9.50;99.90;;;;;;5082726;28;19928;-83
2023/05/24 04:51:40;;;;;;;;;;;9.50;99.90;;;;;;5083589;28;20035;-83
2023/05/24 04:54:07;;;;;;;;;;;9.60;99.90;;;;;;5082734;28;20018;-86
2023/05/24 04:56:33;;;;;;;;;;;9.70;99.90;;;;;;5116322;27;19928;-84
2023/05/24 04:58:59;;;;;;;;;;;9.80;99.90;;;;;;5082151;28;20022;-84
2023/05/24 05:01:25;;;;;;;;;;;9.90;99.90;;;;;;5111827;27;20011;-83
2023/05/24 05:03:50;;;;;;;;;;;9.90;99.90;;;;;;5079574;28;19924;-83
2023/05/24 05:06:16;;;;;;;;;;;9.90;99.90;;;;;;5062054;28;19984;-83
2023/05/24 05:08:42;;;;;;;;;;;9.90;99.90;;;;;;5082367;28;19935;-84
2023/05/24 05:11:08;;;;;;;;;;;9.90;99.90;;;;;;5080074;28;19931;-83
2023/05/24 05:13:33;;;;;;;;;;;9.90;99.90;;;;;;5082247;28;20389;-84
2023/05/24 05:15:59;;;;;;;;;;;10.00;99.90;;;;;;5118385;27;19931;-83
2023/05/24 05:18:25;;;;;;;;;;;10.20;99.90;;;;;;5084086;28;19952;-82
2023/05/24 05:20:51;;;;;;;;;;;10.20;99.90;;;;;;5084271;28;19928;-86
2023/05/24 05:23:16;;;;;;;;;;;10.20;99.90;;;;;;5067452;28;19928;-83
2023/05/24 05:25:42;;;;;;;;;;;10.30;99.90;;;;;;5083460;28;19938;-84
2023/05/24 05:28:07;;;;;;;;;;;10.30;99.90;;;;;;5083252;28;20685;-84
2023/05/24 05:30:33;;;;;;;;;;;10.40;99.90;;;;;;5082368;28;19935;-82
2023/05/24 05:32:59;;;;;;;;;;;10.40;99.90;;;;;;5116134;27;19981;-82
2023/05/24 05:35:24;;;;;;;;;;;10.80;99.90;;;;;;5083170;28;19966;-87
2023/05/24 05:37:50;;;;;;;;;;;11.40;99.90;;;;;;5083417;28;19924;-84
2023/05/24 05:40:15;;;;;;;;;;;11.80;99.90;;;;;;5082368;28;20049;-83
2023/05/24 05:42:41;;;;;;;;;;;12.60;99.90;;;;;;5115780;27;19928;-84
2023/05/24 05:45:07;;;;;;;;;;;13.20;99.90;;;;;;5082865;28;20672;-84
2023/05/24 05:47:32;;;;;;;;;;;13.20;99.90;;;;;;5083033;28;19967;-84
2023/05/24 05:49:58;;;;;;;;;;;13.70;99.90;;;;;;5081706;28;20433;-84
2023/05/24 05:52:23;;;;;;;;;;;14.00;99.90;;;;;;5066065;28;19947;-86
2023/05/24 05:54:49;;;;;;;;;;;14.50;99.90;;;;;;5084935;28;19927;-84
2023/05/24 05:57:15;;;;;;;;;;;14.80;99.90;;;;;;5065621;28;19959;-84
2023/05/24 05:59:40;;;;;;;;;;;14.90;99.90;;;;;;5083246;28;20010;-88
2023/05/24 06:02:06;;;;;;;;;;;15.20;99.90;;;;;;5083184;28;20031;-85
2023/05/24 06:04:31;;;;;;;;;;;15.40;99.90;;;;;;5115841;27;19932;-83
2023/05/24 06:06:57;;;;;;;;;;;14.70;99.90;;;;;;5084274;28;20911;-86
2023/05/24 06:09:23;;;;;;;;;;;14.90;99.90;;;;;;5082260;28;19948;-85
2023/05/24 06:11:48;;;;;;;;;;;14.00;99.90;;;;;;5076698;28;19928;-84
2023/05/24 06:14:18;;;;;;;;;;;13.70;99.90;;;;;;5078729;28;19924;-84
2023/05/24 06:16:44;;;;;;;;;;;14.10;99.90;;;;;;5115261;27;20008;-85
2023/05/24 06:19:14;;;;;;;;;;;13.70;99.90;;;;;;5080207;28;19928;-84
2023/05/24 06:21:45;;;;;;;;;;;13.60;99.90;;;;;;5112103;28;19924;-84
2023/05/24 06:24:12;;;;;;;;;;;13.40;99.90;;;;;;5115237;28;19924;-84
2023/05/24 06:26:37;;;;;;;;;;;13.10;99.90;;;;;;5083456;28;20563;-85
2023/05/24 06:29:03;;;;;;;;;;;13.00;99.90;;;;;;5082733;28;19928;-82
2023/05/24 06:31:28;;;;;;;;;;;13.10;99.90;;;;;;5082114;28;20021;-83
2023/05/24 06:33:54;;;;;;;;;;;12.90;99.90;;;;;;5113329;28;20010;-84
2023/05/24 06:36:20;;;;;;;;;;;13.20;99.90;;;;;;5082324;28;19954;-86
2023/05/24 06:38:45;;;;;;;;;;;13.50;99.90;;;;;;5083449;28;19985;-84
2023/05/24 06:41:11;;;;;;;;;;;14.10;99.90;;;;;;5086745;28;19928;-84
2023/05/24 06:43:37;;;;;;;;;;;14.20;99.90;;;;;;5086782;28;20677;-84
2023/05/24 06:46:03;;;;;;;;;;;14.30;99.90;;;;;;5070913;28;19924;-82
2023/05/24 06:48:28;;;;;;;;;;;13.80;99.90;;;;;;5086903;28;20442;-84
2023/05/24 06:50:54;;;;;;;;;;;14.10;99.90;;;;;;5082799;28;19935;-85
2023/05/24 06:53:19;;;;;;;;;;;14.40;99.90;;;;;;5069618;28;19981;-88
2023/05/24 06:55:45;;;;;;;;;;;14.60;99.90;;;;;;5087731;28;19932;-83
2023/05/24 06:58:13;;;;;;;;;;;14.90;99.90;;;;;;5089033;28;19941;-85
2023/05/24 07:00:40;;;;;;;;;;;14.80;99.90;;;;;;5121029;27;20563;-84
2023/05/24 07:03:06;;;;;;;;;;;15.20;99.90;;;;;;5087794;28;20018;-84
2023/05/24 07:05:31;;;;;;;;;;;14.80;99.90;;;;;;5083736;28;20015;-86
2023/05/24 07:07:57;;;;;;;;;;;15.00;99.90;;;;;;5119741;27;19928;-84
2023/05/24 07:10:22;;;;;;;;;;;15.00;99.90;;;;;;5086665;28;19928;-83
2023/05/24 07:12:48;;;;;;;;;;;14.80;99.90;;;;;;5087043;28;19928;-85
2023/05/24 07:15:13;;;;;;;;;;;14.60;99.90;;;;;;5087809;28;20459;-87
2023/05/24 07:17:39;;;;;;;;;;;14.70;99.90;;;;;;5069852;28;20281;-84
2023/05/24 07:20:12;;;;;;;;;;;14.90;99.90;;;;;;5089019;28;20033;-84
2023/05/24 07:22:38;;;;;;;;;;;14.50;99.90;;;;;;5103296;28;19927;-89
2023/05/24 07:25:04;;;;;;;;;;;15.10;99.90;;;;;;5085238;28;20623;-87
2023/05/24 07:27:29;;;;;;;;;;;15.10;99.90;;;;;;5084901;28;19928;-84
2023/05/24 07:29:56;;;;;;;;;;;15.50;99.90;;;;;;5087553;28;20051;-86
2023/05/24 07:32:21;;;;;;;;;;;15.40;99.90;;;;;;5069242;28;19924;-87
2023/05/24 07:34:47;;;;;;;;;;;15.60;99.90;;;;;;5118075;27;19934;-86
2023/05/24 07:37:13;;;;;;;;;;;15.40;99.90;;;;;;5070372;28;20364;-86
2023/05/24 07:39:38;;;;;;;;;;;15.20;99.90;;;;;;5087108;28;19928;-84
2023/05/24 07:42:05;;;;;;;;;;;14.90;99.90;;;;;;5087212;28;20304;-86
2023/05/24 07:44:31;;;;;;;;;;;14.70;99.90;;;;;;5070229;28;19932;-87
2023/05/24 07:46:56;;;;;;;;;;;14.60;99.90;;;;;;5065897;28;20719;-87
2023/05/24 07:49:22;;;;;;;;;;;14.50;99.90;;;;;;5070092;28;19924;-87
2023/05/24 07:51:48;;;;;;;;;;;14.20;99.90;;;;;;5085076;28;20022;-85
2023/05/24 07:54:14;;;;;;;;;;;14.10;99.90;;;;;;5087285;28;19967;-87
2023/05/24 07:56:40;;;;;;;;;;;14.30;99.90;;;;;;5068791;28;19932;-84
2023/05/24 07:59:07;;;;;;;;;;;14.40;99.90;;;;;;5086343;28;19932;-84
2023/05/24 08:01:33;;;;;;;;;;;14.70;99.90;;;;;;5082621;28;19956;-85
2023/05/24 08:04:02;;;;;;;;;;;14.40;99.90;;;;;;5109845;27;20014;-83
2023/05/24 08:06:28;;;;;;;;;;;14.60;99.90;;;;;;5082295;28;19967;-85
2023/05/24 08:08:55;;;;;;;;;;;14.80;99.90;;;;;;5079204;28;19970;-87
2023/05/24 08:11:20;;;;;;;;;;;14.80;99.90;;;;;;5079633;28;20005;-87
2023/05/24 08:13:46;;;;;;;;;;;14.70;99.90;;;;;;5067563;28;19932;-85
2023/05/24 08:16:12;;;;;;;;;;;14.30;99.90;;;;;;5115753;27;19970;-86
2023/05/24 08:18:37;;;;;;;;;;;13.90;99.90;;;;;;5068523;28;19935;-86
2023/05/24 08:21:03;;;;;;;;;;;14.00;99.90;;;;;;5084460;28;19928;-84
2023/05/24 08:23:29;;;;;;;;;;;14.20;99.90;;;;;;5084957;28;19924;-82
2023/05/24 08:25:58;;;;;;;;;;;14.20;99.90;;;;;;5117898;27;19931;-82
2023/05/24 08:28:24;;;;;;;;;;;14.40;99.90;;;;;;5084562;28;20440;-85
2023/05/24 08:30:50;;;;;;;;;;;14.60;99.90;;;;;;5085693;28;19935;-87
2023/05/24 08:33:15;;;;;;;;;;;14.60;99.90;;;;;;5080694;28;20289;-86
2023/05/24 08:35:41;;;;;;;;;;;14.80;99.90;;;;;;5085094;28;20003;-85
2023/05/24 08:38:25;;;;;;;;;;;15.10;99.90;;;;;;5084098;28;19928;-86
2023/05/24 08:40:50;;;;;;;;;;;14.90;99.90;;;;;;5066136;28;19935;-86
2023/05/24 08:43:16;;;;;;;;;;;14.70;99.90;;;;;;5081360;28;19932;-83
2023/05/24 08:45:42;;;;;;;;;;;15.00;99.90;;;;;;5085174;28;19928;-86
2023/05/24 08:48:08;;;;;;;;;;;15.00;99.90;;;;;;5085592;28;19928;-84
2023/05/24 08:50:34;;;;;;;;;;;15.00;99.90;;;;;;5085263;28;19928;-85
2023/05/24 08:53:03;;;;;;;;;;;15.00;99.90;;;;;;5084194;28;20014;-85
2023/05/24 08:55:32;;;;;;;;;;;15.00;99.90;;;;;;5067499;28;19935;-83
2023/05/24 08:57:58;;;;;;;;;;;14.40;99.90;;;;;;5079653;28;19955;-85
2023/05/24 09:00:24;;;;;;;;;;;15.00;99.90;;;;;;5085832;28;19935;-86
2023/05/24 09:02:50;;;;;;;;;;;14.90;99.90;;;;;;5101227;28;19924;-86
2023/05/24 09:05:15;;;;;;;;;;;14.80;99.90;;;;;;5068365;28;19927;-85
2023/05/24 09:07:45;;;;;;;;;;;14.60;99.90;;;;;;5116901;27;20631;-87
2023/05/24 09:10:10;;;;;;;;;;;14.20;99.90;;;;;;5068758;28;19928;-84
2023/05/24 09:12:36;;;;;;;;;;;14.10;99.90;;;;;;5084263;28;19962;-84
2023/05/24 09:15:03;;;;;;;;;;;13.90;99.90;;;;;;5086523;28;19963;-86
2023/05/24 09:17:33;;;;;;;;;;;14.00;99.90;;;;;;5083773;28;19928;-85
2023/05/24 09:19:59;;;;;;;;;;;14.00;99.90;;;;;;5085078;28;20385;-86
2023/05/24 09:22:27;;;;;;;;;;;14.20;99.90;;;;;;5114818;27;19997;-84
2023/05/24 09:24:56;;;;;;;;;;;14.40;99.90;;;;;;5082440;28;19928;-86
2023/05/24 09:27:22;;;;;;;;;;;14.60;99.90;;;;;;5098581;28;19981;-83
2023/05/24 09:29:48;;;;;;;;;;;14.80;99.90;;;;;;5080728;28;19924;-84
2023/05/24 09:32:14;;;;;;;;;;;15.00;99.90;;;;;;5083937;28;19928;-86
2023/05/24 09:34:46;;;;;;;;;;;15.10;99.90;;;;;;5064934;28;19978;-85
2023/05/24 09:37:15;;;;;;;;;;;14.90;99.90;;;;;;5117309;27;20020;-85
2023/05/24 09:39:41;;;;;;;;;;;14.80;99.90;;;;;;5080331;28;19932;-85
2023/05/24 09:42:07;;;;;;;;;;;15.00;99.90;;;;;;5081030;28;19930;-86
2023/05/24 09:44:32;;;;;;;;;;;14.70;99.90;;;;;;5116653;27;19928;-86
2023/05/24 09:47:04;;;;;;;;;;;14.80;99.90;;;;;;5081849;28;19932;-85
2023/05/24 09:49:30;;;;;;;;;;;15.00;99.90;;;;;;5081748;28;20021;-83
2023/05/24 09:51:56;;;;;;;;;;;15.00;99.90;;;;;;5082570;28;20429;-84
2023/05/24 09:54:23;;;;;;;;;;;15.20;99.90;;;;;;5067850;28;19968;-86
2023/05/24 09:56:50;;;;;;;;;;;15.20;99.90;;;;;;5114280;27;19924;-85
2023/05/24 09:59:15;;;;;;;;;;;15.00;99.90;;;;;;5084904;28;20358;-86
2023/05/24 10:01:41;;;;;;;;;;;15.30;99.90;;;;;;5084432;28;19989;-83
2023/05/24 10:04:06;;;;;;;;;;;15.10;99.90;;;;;;5083104;28;20942;-84
2023/05/24 10:06:36;;;;;;;;;;;14.80;99.90;;;;;;5079817;28;19928;-86
2023/05/24 10:09:05;;;;;;;;;;;14.80;99.90;;;;;;5084269;28;19935;-86
2023/05/24 10:11:32;;;;;;;;;;;14.70;99.90;;;;;;5079859;28;19928;-83
2023/05/24 10:13:57;;;;;;;;;;;14.80;99.90;;;;;;5083403;28;19963;-88
2023/05/24 10:16:23;;;;;;;;;;;15.10;99.90;;;;;;5082217;28;19975;-84
2023/05/24 10:18:49;;;;;;;;;;;15.00;99.90;;;;;;5081876;28;19927;-83
2023/05/24 10:21:16;;;;;;;;;;;15.20;99.90;;;;;;5081826;28;20308;-85
2023/05/24 10:23:43;;;;;;;;;;;15.10;99.90;;;;;;5081998;28;19924;-85
2023/05/24 10:26:10;;;;;;;;;;;15.00;99.90;;;;;;5065773;28;19949;-84
2023/05/24 10:28:38;;;;;;;;;;;15.20;99.90;;;;;;5081807;28;20375;-85
2023/05/24 10:31:09;;;;;;;;;;;15.50;99.90;;;;;;5080916;28;19928;-84
2023/05/24 10:33:36;;;;;;;;;;;15.80;99.90;;;;;;5082995;28;19935;-85
2023/05/24 10:36:05;;;;;;;;;;;16.00;99.90;;;;;;5083245;28;19935;-84
2023/05/24 10:38:32;;;;;;;;;;;16.00;99.90;;;;;;5082998;28;20389;-87
2023/05/24 10:40:57;;;;;;;;;;;16.10;99.90;;;;;;5083030;28;19972;-83
2023/05/24 10:43:24;;;;;;;;;;;15.90;99.90;;;;;;5082045;28;19980;-84
2023/05/24 10:45:50;;;;;;;;;;;16.20;99.90;;;;;;5066043;28;20625;-87
2023/05/24 10:48:16;;;;;;;;;;;16.50;99.90;;;;;;5093347;28;19971;-84
2023/05/24 10:50:42;;;;;;;;;;;16.20;99.90;;;;;;5066339;28;19932;-85
2023/05/24 10:53:12;;;;;;;;;;;16.10;99.90;;;;;;5083062;28;19976;-83
2023/05/24 10:55:57;;;;;;;;;;;16.00;99.90;;;;;;5083627;28;20327;-83
2023/05/24 10:58:41;;;;;;;;;;;16.30;99.90;;;;;;5111465;28;19928;-83
2023/05/24 11:01:12;;;;;;;;;;;16.20;99.90;;;;;;5081671;28;19958;-84
2023/05/24 11:03:39;;;;;;;;;;;16.20;99.90;;;;;;5082236;28;19928;-85
2023/05/24 11:06:05;;;;;;;;;;;16.50;99.90;;;;;;5082352;28;19981;-85
2023/05/24 11:08:32;;;;;;;;;;;16.80;99.90;;;;;;5083867;28;19963;-85
2023/05/24 11:11:16;;;;;;;;;;;16.80;99.90;;;;;;5083101;28;20011;-84
2023/05/24 11:13:42;;;;;;;;;;;16.60;99.90;;;;;;5065566;28;20466;-83
2023/05/24 11:16:08;;;;;;;;;;;16.20;99.90;;;;;;5081566;28;19928;-83
2023/05/24 11:18:37;;;;;;;;;;;16.00;99.90;;;;;;5077808;28;19928;-83
2023/05/24 11:21:03;;;;;;;;;;;16.00;99.90;;;;;;5082991;28;19928;-83
2023/05/24 11:23:30;;;;;;;;;;;16.30;99.90;;;;;;5082992;28;20322;-87
2023/05/24 11:25:56;;;;;;;;;;;16.00;99.90;;;;;;5086210;28;20443;-86
2023/05/24 11:28:22;;;;;;;;;;;16.20;99.90;;;;;;5087399;28;19932;-86
2023/05/24 11:30:47;;;;;;;;;;;16.30;99.90;;;;;;5087064;28;19924;-86
2023/05/24 11:33:17;;;;;;;;;;;16.20;99.90;;;;;;5086694;28;19928;-84
2023/05/24 11:35:43;;;;;;;;;;;16.10;99.90;;;;;;5068011;28;19924;-84
2023/05/24 11:38:12;;;;;;;;;;;16.50;99.90;;;;;;5086510;28;19935;-84
2023/05/24 11:40:45;;;;;;;;;;;16.50;99.90;;;;;;5066165;28;19932;-87
2023/05/24 11:43:11;;;;;;;;;;;16.70;99.90;;;;;;5086348;28;19931;-84
2023/05/24 11:45:38;;;;;;;;;;;17.00;99.90;;;;;;5084777;28;20296;-83
2023/05/24 11:48:04;;;;;;;;;;;17.20;99.90;;;;;;5087370;28;19955;-85
2023/05/24 11:50:30;;;;;;;;;;;17.50;99.90;;;;;;5070619;28;19924;-85
2023/05/24 11:53:01;;;;;;;;;;;17.40;99.90;;;;;;5086451;28;20492;-86
2023/05/24 11:55:26;;;;;;;;;;;17.30;99.90;;;;;;5084860;28;20305;-84
2023/05/24 11:57:55;;;;;;;;;;;17.20;99.90;;;;;;5110440;27;19932;-84
2023/05/24 12:00:27;;;;;;;;;;;17.00;99.90;;;;;;5079498;28;19929;-83
2023/05/24 12:03:00;;;;;;;;;;;16.50;99.90;;;;;;5085204;28;19928;-85
2023/05/24 12:05:25;;;;;;;;;;;16.50;99.90;;;;;;5085704;28;19928;-85
2023/05/24 12:08:04;;;;;;;;;;;16.00;99.90;;;;;;5084742;28;20421;-83
2023/05/24 12:10:31;;;;;;;;;;;16.00;99.90;;;;;;5082438;28;19928;-84
2023/05/24 12:12:56;;;;;;;;;;;16.00;99.90;;;;;;5097231;28;20389;-83
2023/05/24 12:15:22;;;;;;;;;;;16.10;99.90;;;;;;5083616;28;19964;-88
2023/05/24 12:17:49;;;;;;;;;;;16.30;99.90;;;;;;5084898;28;20436;-85
2023/05/24 12:20:15;;;;;;;;;;;16.50;99.90;;;;;;5114644;27;19924;-83
2023/05/24 12:22:49;;;;;;;;;;;16.50;99.90;;;;;;5083875;28;19935;-83
2023/05/24 12:25:15;;;;;;;;;;;16.90;99.90;;;;;;5084809;28;19932;-83
2023/05/24 12:27:47;;;;;;;;;;;17.10;99.90;;;;;;5092582;28;19928;-83
2023/05/24 12:30:18;;;;;;;;;;;16.90;99.90;;;;;;5084043;28;19931;-83
2023/05/24 12:32:45;;;;;;;;;;;16.90;99.90;;;;;;5112995;27;19935;-82
2023/05/24 12:35:11;;;;;;;;;;;17.20;99.90;;;;;;5082019;28;19924;-87
2023/05/24 12:37:38;;;;;;;;;;;17.60;99.90;;;;;;5082393;28;19966;-85
2023/05/24 12:40:19;;;;;;;;;;;18.30;99.90;;;;;;5084894;28;20282;-84
2023/05/24 12:42:45;;;;;;;;;;;18.00;99.90;;;;;;5083120;28;20290;-85
2023/05/24 12:45:11;;;;;;;;;;;18.10;99.90;;;;;;5084960;28;19931;-88
2023/05/24 12:47:37;;;;;;;;;;;18.10;99.90;;;;;;5063452;28;19925;-83
2023/05/24 12:50:03;;;;;;;;;;;17.50;99.90;;;;;;5112213;27;19939;-85
2023/05/24 12:52:28;;;;;;;;;;;17.80;99.90;;;;;;5081985;28;19987;-83
2023/05/24 12:54:54;;;;;;;;;;;18.00;99.90;;;;;;5109952;27;19935;-86
2023/05/24 12:57:19;;;;;;;;;;;17.60;99.90;;;;;;5083241;28;19932;-83
2023/05/24 12:59:46;;;;;;;;;;;17.80;99.90;;;;;;5082232;28;20008;-85
2023/05/24 13:02:12;;;;;;;;;;;17.60;99.90;;;;;;5082916;28;19924;-84
2023/05/24 13:04:37;;;;;;;;;;;17.70;99.90;;;;;;5095063;28;20297;-85
2023/05/24 13:07:03;;;;;;;;;;;17.60;99.90;;;;;;5084442;28;19931;-83
2023/05/24 13:09:29;;;;;;;;;;;17.20;99.90;;;;;;5083680;28;19931;-83
2023/05/24 13:11:54;;;;;;;;;;;17.30;99.90;;;;;;5081216;28;20015;-86
2023/05/24 13:14:20;;;;;;;;;;;17.00;99.90;;;;;;5065198;28;20674;-84
2023/05/24 13:16:46;;;;;;;;;;;17.10;99.90;;;;;;5082976;28;20039;-83
2023/05/24 13:19:11;;;;;;;;;;;17.10;99.90;;;;;;5083532;28;20381;-83
2023/05/24 13:21:37;;;;;;;;;;;17.10;99.90;;;;;;5108446;27;20501;-85
2023/05/24 13:24:05;;;;;;;;;;;17.00;99.90;;;;;;5115123;27;20043;-84
2023/05/24 13:26:35;;;;;;;;;;;17.00;99.90;;;;;;5084856;28;19931;-87
2023/05/24 13:29:02;;;;;;;;;;;16.90;99.90;;;;;;5080947;28;19932;-85
2023/05/24 13:31:27;;;;;;;;;;;17.00;99.90;;;;;;5062015;28;19940;-83
2023/05/24 13:33:53;;;;;;;;;;;17.00;99.90;;;;;;5082369;28;19931;-84
2023/05/24 13:36:19;;;;;;;;;;;17.40;99.90;;;;;;5080619;28;20381;-85
2023/05/24 13:38:44;;;;;;;;;;;17.20;99.90;;;;;;5115073;27;19934;-82
2023/05/24 13:41:10;;;;;;;;;;;17.10;99.90;;;;;;5079236;28;20421;-85
2023/05/24 13:43:35;;;;;;;;;;;17.20;99.90;;;;;;5082186;28;20576;-84
2023/05/24 13:46:01;;;;;;;;;;;17.00;99.90;;;;;;5082347;28;19936;-89
2023/05/24 13:48:26;;;;;;;;;;;17.00;99.90;;;;;;5083095;28;19928;-84
2023/05/24 13:50:52;;;;;;;;;;;16.70;99.90;;;;;;5090117;28;20465;-84
2023/05/24 13:53:18;;;;;;;;;;;16.90;99.90;;;;;;5081247;28;19935;-85
2023/05/24 13:55:43;;;;;;;;;;;16.60;99.90;;;;;;5114697;27;19928;-84
2023/05/24 13:58:09;;;;;;;;;;;16.70;99.90;;;;;;5081395;28;19967;-83
2023/05/24 14:00:35;;;;;;;;;;;16.50;99.90;;;;;;5065336;28;19935;-83
2023/05/24 14:03:01;;;;;;;;;;;16.90;99.90;;;;;;5112477;27;19963;-86
2023/05/24 14:05:29;;;;;;;;;;;16.60;99.90;;;;;;5064077;28;24129;-84
2023/05/24 14:07:56;;;;;;;;;;;16.80;99.90;;;;;;5083181;28;19956;-85
2023/05/24 14:10:22;;;;;;;;;;;16.70;99.90;;;;;;5081049;28;19924;-86
2023/05/24 14:12:48;;;;;;;;;;;16.50;99.90;;;;;;5083877;28;19935;-87
2023/05/24 14:15:13;;;;;;;;;;;17.30;99.90;;;;;;5080250;28;19928;-82
2023/05/24 14:17:39;;;;;;;;;;;17.00;99.90;;;;;;5081704;28;19928;-83